sensor_id;sensor_type;location;lat;lon;timestamp;P1;durP1;ratioP1;P2;durP2;ratioP2
61960;SDS011;47923;42.506;24.192;2023-07-28T00:01:27;7.03;;;2.20;;
61960;SDS011;47923;42.506;24.192;2023-07-28T00:03:59;4.93;;;2.30;;
61960;SDS011;47923;42.506;24.192;2023-07-28T00:06:32;4.63;;;2.10;;
61960;SDS011;47923;42.506;24.192;2023-07-28T00:09:13;4.90;;;2.22;;
61960;SDS011;47923;42.506;24.192;2023-07-28T00:11:49;6.18;;;2.22;;
61960;SDS011;47923;42.506;24.192;2023-07-28T00:14:30;4.28;;;2.38;;
61960;SDS011;47923;42.506;24.192;2023-07-28T00:16:56;2.72;;;1.95;;
61960;SDS011;47923;42.506;24.192;2023-07-28T00:19:42;4.53;;;2.35;;
61960;SDS011;47923;42.506;24.192;2023-07-28T00:22:16;4.18;;;1.80;;
61960;SDS011;47923;42.506;24.192;2023-07-28T00:24:42;6.70;;;2.10;;
61960;SDS011;47923;42.506;24.192;2023-07-28T00:27:07;5.95;;;2.33;;
61960;SDS011;47923;42.506;24.192;2023-07-28T00:29:53;4.35;;;2.22;;
61960;SDS011;47923;42.506;24.192;2023-07-28T00:32:19;5.60;;;2.30;;
61960;SDS011;47923;42.506;24.192;2023-07-28T00:34:53;4.68;;;2.20;;
61960;SDS011;47923;42.506;24.192;2023-07-28T00:37:32;5.00;;;2.10;;
61960;SDS011;47923;42.506;24.192;2023-07-28T00:40:02;4.13;;;2.10;;
61960;SDS011;47923;42.506;24.192;2023-07-28T00:42:37;6.85;;;2.30;;
61960;SDS011;47923;42.506;24.192;2023-07-28T00:45:16;5.40;;;2.25;;
61960;SDS011;47923;42.506;24.192;2023-07-28T00:47:54;5.40;;;2.67;;
61960;SDS011;47923;42.506;24.192;2023-07-28T00:50:51;4.60;;;2.22;;
61960;SDS011;47923;42.506;24.192;2023-07-28T00:53:19;2.97;;;2.10;;
61960;SDS011;47923;42.506;24.192;2023-07-28T00:55:47;6.40;;;2.42;;
61960;SDS011;47923;42.506;24.192;2023-07-28T00:58:13;4.10;;;2.40;;
61960;SDS011;47923;42.506;24.192;2023-07-28T01:00:38;4.60;;;2.50;;
61960;SDS011;47923;42.506;24.192;2023-07-28T01:03:04;3.92;;;2.40;;
61960;SDS011;47923;42.506;24.192;2023-07-28T01:08:34;4.97;;;2.97;;
61960;SDS011;47923;42.506;24.192;2023-07-28T01:11:15;4.32;;;2.28;;
61960;SDS011;47923;42.506;24.192;2023-07-28T01:13:40;3.78;;;2.30;;
61960;SDS011;47923;42.506;24.192;2023-07-28T01:16:06;6.60;;;2.90;;
61960;SDS011;47923;42.506;24.192;2023-07-28T01:18:33;7.65;;;2.80;;
61960;SDS011;47923;42.506;24.192;2023-07-28T01:20:59;5.00;;;2.78;;
61960;SDS011;47923;42.506;24.192;2023-07-28T01:23:41;6.32;;;3.28;;
61960;SDS011;47923;42.506;24.192;2023-07-28T01:26:16;5.07;;;2.72;;
61960;SDS011;47923;42.506;24.192;2023-07-28T01:28:42;5.38;;;2.50;;
61960;SDS011;47923;42.506;24.192;2023-07-28T01:31:10;6.10;;;3.20;;
61960;SDS011;47923;42.506;24.192;2023-07-28T01:33:35;5.03;;;2.40;;
61960;SDS011;47923;42.506;24.192;2023-07-28T01:36:01;5.18;;;2.75;;
61960;SDS011;47923;42.506;24.192;2023-07-28T01:38:27;5.40;;;2.70;;
61960;SDS011;47923;42.506;24.192;2023-07-28T01:40:53;4.13;;;2.50;;
61960;SDS011;47923;42.506;24.192;2023-07-28T01:43:19;4.20;;;2.30;;
61960;SDS011;47923;42.506;24.192;2023-07-28T01:45:45;3.75;;;2.40;;
61960;SDS011;47923;42.506;24.192;2023-07-28T01:48:10;5.97;;;2.67;;
61960;SDS011;47923;42.506;24.192;2023-07-28T01:50:36;4.93;;;2.58;;
61960;SDS011;47923;42.506;24.192;2023-07-28T01:53:03;6.38;;;2.90;;
61960;SDS011;47923;42.506;24.192;2023-07-28T01:55:29;3.97;;;2.45;;
61960;SDS011;47923;42.506;24.192;2023-07-28T01:57:56;3.50;;;2.30;;
61960;SDS011;47923;42.506;24.192;2023-07-28T02:00:23;3.92;;;2.47;;
61960;SDS011;47923;42.506;24.192;2023-07-28T02:02:50;4.95;;;3.05;;
61960;SDS011;47923;42.506;24.192;2023-07-28T02:05:16;5.43;;;2.88;;
61960;SDS011;47923;42.506;24.192;2023-07-28T02:07:42;5.60;;;2.72;;
61960;SDS011;47923;42.506;24.192;2023-07-28T02:10:08;6.80;;;2.90;;
61960;SDS011;47923;42.506;24.192;2023-07-28T02:12:35;6.45;;;2.70;;
61960;SDS011;47923;42.506;24.192;2023-07-28T02:15:06;3.97;;;2.83;;
61960;SDS011;47923;42.506;24.192;2023-07-28T02:17:32;5.47;;;3.10;;
61960;SDS011;47923;42.506;24.192;2023-07-28T02:19:58;4.07;;;2.67;;
61960;SDS011;47923;42.506;24.192;2023-07-28T02:22:24;4.28;;;2.28;;
61960;SDS011;47923;42.506;24.192;2023-07-28T02:24:49;5.20;;;2.53;;
61960;SDS011;47923;42.506;24.192;2023-07-28T02:27:15;7.45;;;3.63;;
61960;SDS011;47923;42.506;24.192;2023-07-28T02:29:51;5.25;;;3.00;;
61960;SDS011;47923;42.506;24.192;2023-07-28T02:32:19;5.15;;;2.90;;
61960;SDS011;47923;42.506;24.192;2023-07-28T02:34:48;4.32;;;2.72;;
61960;SDS011;47923;42.506;24.192;2023-07-28T02:37:25;8.02;;;3.67;;
61960;SDS011;47923;42.506;24.192;2023-07-28T02:40:00;5.18;;;3.20;;
61960;SDS011;47923;42.506;24.192;2023-07-28T02:42:41;8.93;;;3.78;;
61960;SDS011;47923;42.506;24.192;2023-07-28T02:45:07;9.27;;;3.47;;
61960;SDS011;47923;42.506;24.192;2023-07-28T02:47:46;5.00;;;3.30;;
61960;SDS011;47923;42.506;24.192;2023-07-28T02:50:23;7.07;;;3.30;;
61960;SDS011;47923;42.506;24.192;2023-07-28T02:53:11;9.38;;;3.28;;
61960;SDS011;47923;42.506;24.192;2023-07-28T02:55:51;5.47;;;3.03;;
61960;SDS011;47923;42.506;24.192;2023-07-28T02:58:23;4.90;;;3.13;;
61960;SDS011;47923;42.506;24.192;2023-07-28T03:01:02;7.50;;;2.95;;
61960;SDS011;47923;42.506;24.192;2023-07-28T03:03:33;5.80;;;2.78;;
61960;SDS011;47923;42.506;24.192;2023-07-28T03:05:59;4.20;;;2.45;;
61960;SDS011;47923;42.506;24.192;2023-07-28T03:08:24;5.53;;;2.72;;
61960;SDS011;47923;42.506;24.192;2023-07-28T03:10:50;5.13;;;2.70;;
61960;SDS011;47923;42.506;24.192;2023-07-28T03:13:15;4.55;;;2.60;;
61960;SDS011;47923;42.506;24.192;2023-07-28T03:15:40;6.63;;;2.50;;
61960;SDS011;47923;42.506;24.192;2023-07-28T03:18:06;5.07;;;2.70;;
61960;SDS011;47923;42.506;24.192;2023-07-28T03:20:31;6.63;;;2.60;;
61960;SDS011;47923;42.506;24.192;2023-07-28T03:22:57;5.60;;;2.40;;
61960;SDS011;47923;42.506;24.192;2023-07-28T03:25:22;6.38;;;3.65;;
61960;SDS011;47923;42.506;24.192;2023-07-28T03:27:48;5.57;;;3.15;;
61960;SDS011;47923;42.506;24.192;2023-07-28T03:30:13;5.40;;;2.90;;
61960;SDS011;47923;42.506;24.192;2023-07-28T03:32:39;6.00;;;3.15;;
61960;SDS011;47923;42.506;24.192;2023-07-28T03:35:05;6.00;;;2.72;;
61960;SDS011;47923;42.506;24.192;2023-07-28T03:37:31;6.63;;;3.08;;
61960;SDS011;47923;42.506;24.192;2023-07-28T03:39:59;5.35;;;2.72;;
61960;SDS011;47923;42.506;24.192;2023-07-28T03:42:25;5.63;;;2.80;;
61960;SDS011;47923;42.506;24.192;2023-07-28T03:44:51;3.15;;;2.13;;
61960;SDS011;47923;42.506;24.192;2023-07-28T03:47:16;5.00;;;2.63;;
61960;SDS011;47923;42.506;24.192;2023-07-28T03:49:42;5.25;;;2.95;;
61960;SDS011;47923;42.506;24.192;2023-07-28T03:52:07;5.72;;;3.08;;
61960;SDS011;47923;42.506;24.192;2023-07-28T03:54:33;6.57;;;2.75;;
61960;SDS011;47923;42.506;24.192;2023-07-28T03:56:58;4.15;;;2.33;;
61960;SDS011;47923;42.506;24.192;2023-07-28T03:59:24;3.38;;;1.73;;
61960;SDS011;47923;42.506;24.192;2023-07-28T04:01:49;5.60;;;2.13;;
61960;SDS011;47923;42.506;24.192;2023-07-28T04:04:15;4.28;;;1.92;;
61960;SDS011;47923;42.506;24.192;2023-07-28T04:06:44;6.15;;;1.73;;
61960;SDS011;47923;42.506;24.192;2023-07-28T04:09:12;2.80;;;1.75;;
61960;SDS011;47923;42.506;24.192;2023-07-28T04:11:39;3.15;;;1.40;;
61960;SDS011;47923;42.506;24.192;2023-07-28T04:14:05;5.07;;;1.40;;
61960;SDS011;47923;42.506;24.192;2023-07-28T04:16:30;6.03;;;1.60;;
61960;SDS011;47923;42.506;24.192;2023-07-28T04:18:56;5.53;;;1.33;;
61960;SDS011;47923;42.506;24.192;2023-07-28T04:21:22;4.30;;;1.20;;
61960;SDS011;47923;42.506;24.192;2023-07-28T04:23:47;3.80;;;1.50;;
61960;SDS011;47923;42.506;24.192;2023-07-28T04:26:12;4.30;;;1.52;;
61960;SDS011;47923;42.506;24.192;2023-07-28T04:28:38;6.65;;;1.65;;
61960;SDS011;47923;42.506;24.192;2023-07-28T04:31:04;5.35;;;1.27;;
61960;SDS011;47923;42.506;24.192;2023-07-28T04:33:30;6.38;;;1.83;;
61960;SDS011;47923;42.506;24.192;2023-07-28T04:36:02;10.02;;;1.75;;
61960;SDS011;47923;42.506;24.192;2023-07-28T04:38:30;4.03;;;1.38;;
61960;SDS011;47923;42.506;24.192;2023-07-28T04:40:58;6.15;;;1.45;;
61960;SDS011;47923;42.506;24.192;2023-07-28T04:43:33;6.78;;;1.50;;
61960;SDS011;47923;42.506;24.192;2023-07-28T04:46:02;3.65;;;1.10;;
61960;SDS011;47923;42.506;24.192;2023-07-28T04:48:43;3.15;;;1.17;;
61960;SDS011;47923;42.506;24.192;2023-07-28T04:51:11;3.45;;;1.10;;
61960;SDS011;47923;42.506;24.192;2023-07-28T04:53:37;3.75;;;1.35;;
61960;SDS011;47923;42.506;24.192;2023-07-28T04:56:16;8.05;;;1.58;;
61960;SDS011;47923;42.506;24.192;2023-07-28T05:02:00;4.90;;;1.63;;
61960;SDS011;47923;42.506;24.192;2023-07-28T05:04:37;2.72;;;1.25;;
61960;SDS011;47923;42.506;24.192;2023-07-28T05:07:26;6.82;;;1.70;;
61960;SDS011;47923;42.506;24.192;2023-07-28T05:10:02;4.45;;;1.90;;
61960;SDS011;47923;42.506;24.192;2023-07-28T05:12:31;7.22;;;2.05;;
61960;SDS011;47923;42.506;24.192;2023-07-28T05:17:37;7.28;;;1.83;;
61960;SDS011;47923;42.506;24.192;2023-07-28T05:20:06;4.88;;;1.63;;
61960;SDS011;47923;42.506;24.192;2023-07-28T05:22:32;4.78;;;1.50;;
61960;SDS011;47923;42.506;24.192;2023-07-28T05:24:57;6.07;;;1.90;;
61960;SDS011;47923;42.506;24.192;2023-07-28T05:27:23;5.85;;;1.50;;
61960;SDS011;47923;42.506;24.192;2023-07-28T05:29:54;5.43;;;1.45;;
61960;SDS011;47923;42.506;24.192;2023-07-28T05:32:42;6.47;;;1.60;;
61960;SDS011;47923;42.506;24.192;2023-07-28T05:35:19;8.15;;;1.90;;
61960;SDS011;47923;42.506;24.192;2023-07-28T05:37:45;8.13;;;1.75;;
61960;SDS011;47923;42.506;24.192;2023-07-28T05:40:11;4.50;;;1.50;;
61960;SDS011;47923;42.506;24.192;2023-07-28T05:42:37;4.45;;;1.50;;
61960;SDS011;47923;42.506;24.192;2023-07-28T05:45:06;2.85;;;1.30;;
61960;SDS011;47923;42.506;24.192;2023-07-28T05:47:45;5.15;;;1.48;;
61960;SDS011;47923;42.506;24.192;2023-07-28T05:50:11;5.50;;;1.23;;
61960;SDS011;47923;42.506;24.192;2023-07-28T05:52:39;2.72;;;1.05;;
61960;SDS011;47923;42.506;24.192;2023-07-28T05:55:10;3.97;;;1.50;;
61960;SDS011;47923;42.506;24.192;2023-07-28T05:57:41;3.25;;;0.90;;
61960;SDS011;47923;42.506;24.192;2023-07-28T06:00:10;5.00;;;1.35;;
61960;SDS011;47923;42.506;24.192;2023-07-28T06:02:41;4.63;;;1.52;;
61960;SDS011;47923;42.506;24.192;2023-07-28T06:05:09;2.78;;;1.17;;
61960;SDS011;47923;42.506;24.192;2023-07-28T06:07:42;5.22;;;1.73;;
61960;SDS011;47923;42.506;24.192;2023-07-28T06:10:31;3.13;;;1.10;;
61960;SDS011;47923;42.506;24.192;2023-07-28T06:13:03;3.13;;;1.05;;
61960;SDS011;47923;42.506;24.192;2023-07-28T06:15:32;1.98;;;0.80;;
61960;SDS011;47923;42.506;24.192;2023-07-28T06:18:23;4.30;;;1.13;;
61960;SDS011;47923;42.506;24.192;2023-07-28T06:20:55;1.98;;;0.93;;
61960;SDS011;47923;42.506;24.192;2023-07-28T06:23:29;3.20;;;1.00;;
61960;SDS011;47923;42.506;24.192;2023-07-28T06:26:00;2.35;;;1.00;;
61960;SDS011;47923;42.506;24.192;2023-07-28T06:28:29;2.75;;;1.10;;
61960;SDS011;47923;42.506;24.192;2023-07-28T06:30:57;2.50;;;1.05;;
61960;SDS011;47923;42.506;24.192;2023-07-28T06:33:27;2.85;;;0.90;;
61960;SDS011;47923;42.506;24.192;2023-07-28T06:35:56;4.00;;;1.08;;
61960;SDS011;47923;42.506;24.192;2023-07-28T06:38:29;1.30;;;0.70;;
61960;SDS011;47923;42.506;24.192;2023-07-28T06:40:57;2.95;;;0.88;;
61960;SDS011;47923;42.506;24.192;2023-07-28T06:43:28;1.17;;;0.75;;
61960;SDS011;47923;42.506;24.192;2023-07-28T06:45:56;1.63;;;1.00;;
61960;SDS011;47923;42.506;24.192;2023-07-28T06:48:22;2.90;;;0.90;;
61960;SDS011;47923;42.506;24.192;2023-07-28T06:50:57;2.63;;;0.90;;
61960;SDS011;47923;42.506;24.192;2023-07-28T06:53:26;3.97;;;1.00;;
61960;SDS011;47923;42.506;24.192;2023-07-28T06:56:12;2.33;;;1.05;;
61960;SDS011;47923;42.506;24.192;2023-07-28T06:58:37;6.45;;;1.30;;
61960;SDS011;47923;42.506;24.192;2023-07-28T07:01:26;4.50;;;1.00;;
61960;SDS011;47923;42.506;24.192;2023-07-28T07:03:59;3.67;;;1.10;;
61960;SDS011;47923;42.506;24.192;2023-07-28T07:06:25;1.60;;;0.75;;
61960;SDS011;47923;42.506;24.192;2023-07-28T07:08:50;2.13;;;0.90;;
61960;SDS011;47923;42.506;24.192;2023-07-28T07:11:18;3.05;;;0.70;;
61960;SDS011;47923;42.506;24.192;2023-07-28T07:13:49;1.63;;;0.90;;
61960;SDS011;47923;42.506;24.192;2023-07-28T07:16:15;2.08;;;0.90;;
61960;SDS011;47923;42.506;24.192;2023-07-28T07:18:48;3.22;;;1.00;;
61960;SDS011;47923;42.506;24.192;2023-07-28T07:21:13;4.68;;;1.10;;
61960;SDS011;47923;42.506;24.192;2023-07-28T07:23:43;3.88;;;1.05;;
61960;SDS011;47923;42.506;24.192;2023-07-28T07:26:09;1.45;;;0.73;;
61960;SDS011;47923;42.506;24.192;2023-07-28T07:28:34;4.72;;;1.08;;
61960;SDS011;47923;42.506;24.192;2023-07-28T07:31:00;4.30;;;1.00;;
61960;SDS011;47923;42.506;24.192;2023-07-28T07:33:38;2.45;;;0.90;;
61960;SDS011;47923;42.506;24.192;2023-07-28T07:36:16;1.47;;;0.83;;
61960;SDS011;47923;42.506;24.192;2023-07-28T07:38:52;2.42;;;1.10;;
61960;SDS011;47923;42.506;24.192;2023-07-28T07:41:21;2.78;;;0.93;;
61960;SDS011;47923;42.506;24.192;2023-07-28T07:43:48;4.13;;;1.30;;
61960;SDS011;47923;42.506;24.192;2023-07-28T07:46:15;2.22;;;1.05;;
61960;SDS011;47923;42.506;24.192;2023-07-28T07:48:59;2.20;;;1.05;;
61960;SDS011;47923;42.506;24.192;2023-07-28T07:51:28;5.32;;;2.17;;
61960;SDS011;47923;42.506;24.192;2023-07-28T07:53:56;3.75;;;1.05;;
61960;SDS011;47923;42.506;24.192;2023-07-28T07:56:22;1.45;;;0.90;;
61960;SDS011;47923;42.506;24.192;2023-07-28T07:58:47;2.70;;;0.90;;
61960;SDS011;47923;42.506;24.192;2023-07-28T08:01:20;2.72;;;0.98;;
61960;SDS011;47923;42.506;24.192;2023-07-28T08:03:49;4.43;;;1.10;;
61960;SDS011;47923;42.506;24.192;2023-07-28T08:06:14;2.25;;;0.80;;
61960;SDS011;47923;42.506;24.192;2023-07-28T08:08:47;3.58;;;0.95;;
61960;SDS011;47923;42.506;24.192;2023-07-28T08:11:15;4.13;;;1.00;;
61960;SDS011;47923;42.506;24.192;2023-07-28T08:13:49;4.35;;;1.10;;
61960;SDS011;47923;42.506;24.192;2023-07-28T08:16:17;4.97;;;1.10;;
61960;SDS011;47923;42.506;24.192;2023-07-28T08:18:47;3.55;;;1.17;;
61960;SDS011;47923;42.506;24.192;2023-07-28T08:21:18;2.95;;;0.98;;
61960;SDS011;47923;42.506;24.192;2023-07-28T08:23:47;2.80;;;0.93;;
61960;SDS011;47923;42.506;24.192;2023-07-28T08:26:14;3.47;;;1.08;;
61960;SDS011;47923;42.506;24.192;2023-07-28T08:28:45;5.55;;;1.10;;
61960;SDS011;47923;42.506;24.192;2023-07-28T08:31:14;5.70;;;1.30;;
61960;SDS011;47923;42.506;24.192;2023-07-28T08:33:53;2.67;;;1.15;;
61960;SDS011;47923;42.506;24.192;2023-07-28T08:36:24;3.50;;;1.27;;
61960;SDS011;47923;42.506;24.192;2023-07-28T08:38:52;2.47;;;1.20;;
61960;SDS011;47923;42.506;24.192;2023-07-28T08:41:23;3.38;;;1.60;;
61960;SDS011;47923;42.506;24.192;2023-07-28T08:43:53;3.67;;;1.20;;
61960;SDS011;47923;42.506;24.192;2023-07-28T08:46:22;5.57;;;1.35;;
61960;SDS011;47923;42.506;24.192;2023-07-28T08:49:10;4.13;;;1.10;;
61960;SDS011;47923;42.506;24.192;2023-07-28T08:51:48;2.63;;;1.40;;
61960;SDS011;47923;42.506;24.192;2023-07-28T08:54:32;3.58;;;1.02;;
61960;SDS011;47923;42.506;24.192;2023-07-28T08:57:08;2.83;;;1.13;;
61960;SDS011;47923;42.506;24.192;2023-07-28T08:59:40;1.90;;;1.05;;
61960;SDS011;47923;42.506;24.192;2023-07-28T09:02:18;2.50;;;1.17;;
61960;SDS011;47923;42.506;24.192;2023-07-28T09:05:02;8.52;;;1.60;;
61960;SDS011;47923;42.506;24.192;2023-07-28T09:07:34;1.70;;;1.20;;
61960;SDS011;47923;42.506;24.192;2023-07-28T09:10:06;3.80;;;1.10;;
61960;SDS011;47923;42.506;24.192;2023-07-28T09:12:35;4.15;;;0.95;;
61960;SDS011;47923;42.506;24.192;2023-07-28T09:15:11;1.70;;;0.98;;
61960;SDS011;47923;42.506;24.192;2023-07-28T09:17:45;3.80;;;1.10;;
61960;SDS011;47923;42.506;24.192;2023-07-28T09:20:14;3.97;;;1.15;;
61960;SDS011;47923;42.506;24.192;2023-07-28T09:22:44;12.45;;;1.77;;
61960;SDS011;47923;42.506;24.192;2023-07-28T09:27:39;6.57;;;1.08;;
61960;SDS011;47923;42.506;24.192;2023-07-28T09:30:14;2.97;;;1.33;;
61960;SDS011;47923;42.506;24.192;2023-07-28T09:33:05;3.63;;;1.30;;
61960;SDS011;47923;42.506;24.192;2023-07-28T09:35:49;1.38;;;0.75;;
61960;SDS011;47923;42.506;24.192;2023-07-28T09:38:20;3.38;;;1.20;;
61960;SDS011;47923;42.506;24.192;2023-07-28T09:40:50;5.28;;;1.27;;
61960;SDS011;47923;42.506;24.192;2023-07-28T09:43:16;2.67;;;1.10;;
61960;SDS011;47923;42.506;24.192;2023-07-28T09:45:43;2.20;;;1.17;;
61960;SDS011;47923;42.506;24.192;2023-07-28T09:48:12;3.10;;;1.10;;
61960;SDS011;47923;42.506;24.192;2023-07-28T09:50:45;3.78;;;1.55;;
61960;SDS011;47923;42.506;24.192;2023-07-28T09:53:10;3.53;;;1.15;;
61960;SDS011;47923;42.506;24.192;2023-07-28T09:55:38;1.35;;;1.00;;
61960;SDS011;47923;42.506;24.192;2023-07-28T09:58:07;5.03;;;1.15;;
61960;SDS011;47923;42.506;24.192;2023-07-28T10:00:35;1.90;;;1.10;;
61960;SDS011;47923;42.506;24.192;2023-07-28T10:03:01;2.20;;;1.08;;
61960;SDS011;47923;42.506;24.192;2023-07-28T10:05:28;1.80;;;0.90;;
61960;SDS011;47923;42.506;24.192;2023-07-28T10:07:54;4.68;;;1.10;;
61960;SDS011;47923;42.506;24.192;2023-07-28T10:10:20;2.97;;;0.93;;
61960;SDS011;47923;42.506;24.192;2023-07-28T10:12:48;2.95;;;0.90;;
61960;SDS011;47923;42.506;24.192;2023-07-28T10:15:19;2.92;;;1.15;;
61960;SDS011;47923;42.506;24.192;2023-07-28T10:17:53;5.55;;;1.17;;
61960;SDS011;47923;42.506;24.192;2023-07-28T10:22:53;3.03;;;1.20;;
61960;SDS011;47923;42.506;24.192;2023-07-28T10:25:25;2.35;;;1.05;;
61960;SDS011;47923;42.506;24.192;2023-07-28T10:27:50;2.80;;;1.05;;
61960;SDS011;47923;42.506;24.192;2023-07-28T10:30:18;2.85;;;0.73;;
61960;SDS011;47923;42.506;24.192;2023-07-28T10:32:45;3.03;;;1.20;;
61960;SDS011;47923;42.506;24.192;2023-07-28T10:37:46;2.33;;;1.20;;
61960;SDS011;47923;42.506;24.192;2023-07-28T10:40:21;2.33;;;1.33;;
61960;SDS011;47923;42.506;24.192;2023-07-28T10:42:47;2.10;;;1.20;;
61960;SDS011;47923;42.506;24.192;2023-07-28T10:45:13;2.35;;;1.30;;
61960;SDS011;47923;42.506;24.192;2023-07-28T10:47:39;3.25;;;1.20;;
61960;SDS011;47923;42.506;24.192;2023-07-28T10:50:07;2.28;;;1.40;;
61960;SDS011;47923;42.506;24.192;2023-07-28T10:52:34;2.95;;;1.42;;
61960;SDS011;47923;42.506;24.192;2023-07-28T10:55:03;3.53;;;1.17;;
61960;SDS011;47923;42.506;24.192;2023-07-28T10:57:29;4.88;;;1.20;;
61960;SDS011;47923;42.506;24.192;2023-07-28T10:59:55;4.03;;;1.35;;
61960;SDS011;47923;42.506;24.192;2023-07-28T11:02:26;2.88;;;1.30;;
61960;SDS011;47923;42.506;24.192;2023-07-28T11:04:52;3.60;;;1.23;;
61960;SDS011;47923;42.506;24.192;2023-07-28T11:07:17;5.28;;;1.30;;
61960;SDS011;47923;42.506;24.192;2023-07-28T11:09:43;4.47;;;1.85;;
61960;SDS011;47923;42.506;24.192;2023-07-28T11:12:08;4.15;;;1.02;;
61960;SDS011;47923;42.506;24.192;2023-07-28T11:14:35;2.88;;;1.27;;
61960;SDS011;47923;42.506;24.192;2023-07-28T11:17:01;2.22;;;1.20;;
61960;SDS011;47923;42.506;24.192;2023-07-28T11:19:27;2.50;;;1.40;;
61960;SDS011;47923;42.506;24.192;2023-07-28T11:21:52;1.30;;;0.90;;
61960;SDS011;47923;42.506;24.192;2023-07-28T11:24:19;5.07;;;1.05;;
61960;SDS011;47923;42.506;24.192;2023-07-28T11:26:46;2.17;;;1.40;;
61960;SDS011;47923;42.506;24.192;2023-07-28T11:29:11;4.75;;;1.40;;
61960;SDS011;47923;42.506;24.192;2023-07-28T11:31:37;2.40;;;1.20;;
61960;SDS011;47923;42.506;24.192;2023-07-28T11:34:12;2.35;;;1.30;;
61960;SDS011;47923;42.506;24.192;2023-07-28T11:36:38;2.10;;;1.20;;
61960;SDS011;47923;42.506;24.192;2023-07-28T11:39:03;2.83;;;1.33;;
61960;SDS011;47923;42.506;24.192;2023-07-28T11:41:30;2.10;;;1.27;;
61960;SDS011;47923;42.506;24.192;2023-07-28T11:43:58;2.05;;;1.30;;
61960;SDS011;47923;42.506;24.192;2023-07-28T11:46:34;2.53;;;1.30;;
61960;SDS011;47923;42.506;24.192;2023-07-28T11:49:13;2.90;;;1.38;;
61960;SDS011;47923;42.506;24.192;2023-07-28T11:51:49;2.05;;;1.40;;
61960;SDS011;47923;42.506;24.192;2023-07-28T11:54:17;2.60;;;1.38;;
61960;SDS011;47923;42.506;24.192;2023-07-28T11:56:47;2.95;;;1.50;;
61960;SDS011;47923;42.506;24.192;2023-07-28T11:59:16;3.30;;;1.50;;
61960;SDS011;47923;42.506;24.192;2023-07-28T12:01:55;2.88;;;1.50;;
61960;SDS011;47923;42.506;24.192;2023-07-28T12:04:22;2.15;;;1.27;;
61960;SDS011;47923;42.506;24.192;2023-07-28T12:12:15;4.03;;;1.58;;
61960;SDS011;47923;42.506;24.192;2023-07-28T12:14:41;2.28;;;1.50;;
61960;SDS011;47923;42.506;24.192;2023-07-28T12:19:43;4.88;;;1.65;;
61960;SDS011;47923;42.506;24.192;2023-07-28T12:22:23;3.75;;;1.60;;
61960;SDS011;47923;42.506;24.192;2023-07-28T12:24:48;3.60;;;1.83;;
61960;SDS011;47923;42.506;24.192;2023-07-28T12:27:17;4.03;;;1.60;;
61960;SDS011;47923;42.506;24.192;2023-07-28T12:29:42;2.60;;;1.45;;
61960;SDS011;47923;42.506;24.192;2023-07-28T12:32:16;5.70;;;1.60;;
61960;SDS011;47923;42.506;24.192;2023-07-28T12:34:44;3.38;;;1.63;;
61960;SDS011;47923;42.506;24.192;2023-07-28T12:37:10;3.78;;;1.50;;
61960;SDS011;47923;42.506;24.192;2023-07-28T12:39:41;2.60;;;1.38;;
61960;SDS011;47923;42.506;24.192;2023-07-28T12:42:09;3.58;;;1.70;;
61960;SDS011;47923;42.506;24.192;2023-07-28T12:44:39;3.10;;;1.40;;
61960;SDS011;47923;42.506;24.192;2023-07-28T12:47:09;3.05;;;1.40;;
61960;SDS011;47923;42.506;24.192;2023-07-28T12:49:40;2.78;;;1.63;;
61960;SDS011;47923;42.506;24.192;2023-07-28T12:52:08;6.72;;;1.77;;
61960;SDS011;47923;42.506;24.192;2023-07-28T12:54:36;4.60;;;1.75;;
61960;SDS011;47923;42.506;24.192;2023-07-28T12:57:13;5.07;;;1.58;;
61960;SDS011;47923;42.506;24.192;2023-07-28T12:59:39;2.00;;;1.33;;
61960;SDS011;47923;42.506;24.192;2023-07-28T13:02:05;4.28;;;1.63;;
61960;SDS011;47923;42.506;24.192;2023-07-28T13:04:31;3.65;;;1.67;;
61960;SDS011;47923;42.506;24.192;2023-07-28T13:06:59;4.15;;;1.60;;
61960;SDS011;47923;42.506;24.192;2023-07-28T13:09:29;5.00;;;1.83;;
61960;SDS011;47923;42.506;24.192;2023-07-28T13:12:06;3.20;;;1.55;;
61960;SDS011;47923;42.506;24.192;2023-07-28T13:14:41;3.40;;;1.63;;
61960;SDS011;47923;42.506;24.192;2023-07-28T13:17:14;3.13;;;1.40;;
61960;SDS011;47923;42.506;24.192;2023-07-28T13:20:00;3.17;;;1.90;;
61960;SDS011;47923;42.506;24.192;2023-07-28T13:22:34;2.67;;;1.70;;
61960;SDS011;47923;42.506;24.192;2023-07-28T13:25:03;6.07;;;1.80;;
61960;SDS011;47923;42.506;24.192;2023-07-28T13:27:37;4.53;;;1.83;;
61960;SDS011;47923;42.506;24.192;2023-07-28T13:30:17;3.72;;;1.73;;
61960;SDS011;47923;42.506;24.192;2023-07-28T13:32:51;3.35;;;1.52;;
61960;SDS011;47923;42.506;24.192;2023-07-28T13:35:28;2.83;;;1.77;;
61960;SDS011;47923;42.506;24.192;2023-07-28T13:38:03;4.10;;;1.80;;
61960;SDS011;47923;42.506;24.192;2023-07-28T13:40:39;3.75;;;1.90;;
61960;SDS011;47923;42.506;24.192;2023-07-28T13:43:07;3.05;;;1.67;;
61960;SDS011;47923;42.506;24.192;2023-07-28T13:45:32;3.70;;;1.83;;
61960;SDS011;47923;42.506;24.192;2023-07-28T13:48:01;5.38;;;2.20;;
61960;SDS011;47923;42.506;24.192;2023-07-28T13:50:29;4.45;;;1.98;;
61960;SDS011;47923;42.506;24.192;2023-07-28T13:53:02;5.45;;;2.10;;
61960;SDS011;47923;42.506;24.192;2023-07-28T13:55:36;4.53;;;2.25;;
61960;SDS011;47923;42.506;24.192;2023-07-28T13:58:07;3.03;;;1.65;;
61960;SDS011;47923;42.506;24.192;2023-07-28T14:00:38;4.25;;;1.77;;
61960;SDS011;47923;42.506;24.192;2023-07-28T14:03:14;3.15;;;1.75;;
61960;SDS011;47923;42.506;24.192;2023-07-28T14:05:47;4.38;;;1.80;;
61960;SDS011;47923;42.506;24.192;2023-07-28T14:08:27;8.43;;;2.50;;
61960;SDS011;47923;42.506;24.192;2023-07-28T14:11:00;4.90;;;2.28;;
61960;SDS011;47923;42.506;24.192;2023-07-28T14:13:35;5.10;;;2.72;;
61960;SDS011;47923;42.506;24.192;2023-07-28T14:16:06;4.03;;;1.90;;
61960;SDS011;47923;42.506;24.192;2023-07-28T14:18:48;6.65;;;2.45;;
61960;SDS011;47923;42.506;24.192;2023-07-28T14:21:26;4.78;;;1.80;;
61960;SDS011;47923;42.506;24.192;2023-07-28T14:24:10;4.05;;;2.00;;
61960;SDS011;47923;42.506;24.192;2023-07-28T14:26:36;3.42;;;1.77;;
61960;SDS011;47923;42.506;24.192;2023-07-28T14:29:01;4.45;;;1.67;;
61960;SDS011;47923;42.506;24.192;2023-07-28T14:31:35;4.10;;;2.13;;
61960;SDS011;47923;42.506;24.192;2023-07-28T14:34:11;4.32;;;2.08;;
61960;SDS011;47923;42.506;24.192;2023-07-28T14:36:41;7.03;;;3.13;;
61960;SDS011;47923;42.506;24.192;2023-07-28T14:39:16;5.55;;;2.58;;
61960;SDS011;47923;42.506;24.192;2023-07-28T14:41:46;5.55;;;1.92;;
61960;SDS011;47923;42.506;24.192;2023-07-28T14:44:15;5.63;;;1.98;;
61960;SDS011;47923;42.506;24.192;2023-07-28T14:46:55;5.40;;;2.00;;
61960;SDS011;47923;42.506;24.192;2023-07-28T14:49:26;5.75;;;1.90;;
61960;SDS011;47923;42.506;24.192;2023-07-28T14:52:06;7.72;;;2.72;;
61960;SDS011;47923;42.506;24.192;2023-07-28T14:57:19;13.82;;;3.50;;
61960;SDS011;47923;42.506;24.192;2023-07-28T14:59:47;5.72;;;2.15;;
61960;SDS011;47923;42.506;24.192;2023-07-28T15:02:21;8.75;;;2.47;;
61960;SDS011;47923;42.506;24.192;2023-07-28T15:04:56;4.85;;;2.13;;
61960;SDS011;47923;42.506;24.192;2023-07-28T15:07:23;6.05;;;2.10;;
61960;SDS011;47923;42.506;24.192;2023-07-28T15:09:55;5.25;;;2.22;;
61960;SDS011;47923;42.506;24.192;2023-07-28T15:12:47;4.68;;;1.77;;
61960;SDS011;47923;42.506;24.192;2023-07-28T15:18:03;5.45;;;1.98;;
61960;SDS011;47923;42.506;24.192;2023-07-28T15:20:31;5.05;;;1.75;;
61960;SDS011;47923;42.506;24.192;2023-07-28T15:22:57;8.18;;;2.40;;